Time;durP1;ratioP1;P1;durP2;ratioP2;P2;SDS_P1;SDS_P2;PMS_P1;PMS_P2;Temp;Humidity;BMP_temperature;BMP_pressure;BME280_temperature;BME280_humidity;BME280_pressure;Samples;Min_cycle;Max_cycle;Signal;HPM_P1;HPM_P2
2023/03/06 06:01:15;;;;;;;;;38.75;34.50;;;;;7.04;56.23;100617.19;5600332;23;46476;-59
2023/03/06 06:03:41;;;;;;;;;42.00;31.25;;;;;7.06;56.25;100612.69;4941199;28;45390;-58
2023/03/06 06:06:08;;;;;;;;;36.75;30.25;;;;;7.02;56.23;100607.59;4941840;28;45355;-58
2023/03/06 06:08:33;;;;;;;;;38.25;30.75;;;;;7.00;55.92;100602.38;4940640;28;45346;-57
2023/03/06 06:10:59;;;;;;;;;28.50;27.75;;;;;7.00;55.57;100612.94;4946882;28;45317;-59
2023/03/06 06:13:24;;;;;;;;;40.50;29.25;;;;;7.00;56.28;100618.25;4952099;28;47147;-60
2023/03/06 06:15:49;;;;;;;;;37.75;32.00;;;;;7.03;56.11;100610.16;4940775;28;72137;-58
2023/03/06 06:18:15;;;;;;;;;37.25;30.75;;;;;7.06;56.55;100615.34;4944733;28;65228;-57
2023/03/06 06:20:40;;;;;;;;;42.50;36.75;;;;;7.09;56.19;100620.53;4942578;28;45387;-57
2023/03/06 06:23:06;;;;;;;;;34.50;29.75;;;;;7.12;56.02;100625.69;4954331;28;54478;-57
2023/03/06 06:25:31;;;;;;;;;42.25;35.00;;;;;7.14;55.85;100627.41;4951025;28;45418;-57
2023/03/06 06:27:57;;;;;;;;;38.75;33.75;;;;;7.12;56.01;100624.84;4953933;28;45302;-57
2023/03/06 06:30:22;;;;;;;;;39.50;32.75;;;;;7.10;55.81;100630.19;4942373;28;58768;-57
2023/03/06 06:32:48;;;;;;;;;39.50;29.50;;;;;7.11;56.03;100638.97;4940693;28;45232;-57
2023/03/06 06:35:13;;;;;;;;;41.25;33.75;;;;;7.12;56.27;100652.13;4937594;28;45557;-57
2023/03/06 06:37:39;;;;;;;;;39.00;30.50;;;;;7.15;56.18;100651.16;4948762;28;45259;-57
2023/03/06 06:40:05;;;;;;;;;47.50;32.25;;;;;7.15;55.84;100656.44;4947706;28;57449;-57
2023/03/06 06:42:30;;;;;;;;;38.75;31.75;;;;;7.13;56.37;100658.28;4944224;28;46574;-57
2023/03/06 06:44:55;;;;;;;;;38.25;35.00;;;;;7.14;56.14;100664.44;4939940;28;45524;-57
2023/03/06 06:47:21;;;;;;;;;40.00;29.50;;;;;7.13;56.29;100663.56;4946676;28;49270;-57
2023/03/06 06:49:51;;;;;;;;;36.50;32.50;;;;;7.14;56.33;100656.50;4945756;28;68800;-57
2023/03/06 06:52:17;;;;;;;;;42.25;37.00;;;;;7.08;55.95;100658.47;4952025;28;46999;-57
2023/03/06 06:54:43;;;;;;;;;47.50;34.50;;;;;7.08;55.82;100657.63;4952224;28;45335;-57
2023/03/06 06:57:10;;;;;;;;;33.75;30.75;;;;;7.06;56.43;100657.66;4953647;28;45338;-57
2023/03/06 06:59:35;;;;;;;;;34.25;28.75;;;;;7.07;56.38;100664.66;4950056;28;45253;-57
2023/03/06 07:02:00;;;;;;;;;40.50;35.00;;;;;7.06;56.51;100656.81;4937165;28;74728;-57
2023/03/06 07:04:26;;;;;;;;;39.25;34.25;;;;;7.08;56.28;100669.06;4939883;28;45620;-57
2023/03/06 07:06:54;;;;;;;;;41.50;34.75;;;;;7.11;56.35;100655.69;4930554;28;46039;-58
2023/03/06 07:09:21;;;;;;;;;8.00;7.75;;;;;7.15;56.37;100666.19;4940410;28;45465;-58
2023/03/06 07:11:46;;;;;;;;;34.00;31.50;;;;;7.18;56.47;100656.31;4930422;28;46312;-58
2023/03/06 07:14:11;;;;;;;;;41.25;34.00;;;;;7.18;56.40;100658.97;4957068;28;72977;-58
2023/03/06 07:16:37;;;;;;;;;36.50;32.75;;;;;7.17;56.26;100659.03;4944607;28;68297;-58
2023/03/06 07:19:02;;;;;;;;;39.00;33.00;;;;;7.16;56.77;100658.19;4953412;28;48435;-58
2023/03/06 07:21:27;;;;;;;;;37.75;32.00;;;;;7.18;56.51;100650.19;4949707;28;70630;-58
2023/03/06 07:23:55;;;;;;;;;42.50;34.00;;;;;7.19;56.83;100651.91;4946073;28;70167;-59
2023/03/06 07:26:22;;;;;;;;;36.75;29.50;;;;;7.18;56.10;100647.53;4945490;28;45362;-58
2023/03/06 07:28:51;;;;;;;;;35.75;29.75;;;;;7.15;56.16;100647.66;4943566;28;45688;-58
2023/03/06 07:31:17;;;;;;;;;43.75;33.25;;;;;7.11;56.49;100653.06;4937671;28;45577;-58
2023/03/06 07:33:43;;;;;;;;;32.50;30.75;;;;;7.15;56.80;100655.59;4931131;28;45408;-58
2023/03/06 07:36:09;;;;;;;;;40.50;35.50;;;;;7.18;56.41;100658.13;4952201;28;45187;-58
2023/03/06 07:38:35;;;;;;;;;38.75;28.50;;;;;7.19;56.71;100651.91;4938882;28;45377;-58
2023/03/06 07:41:00;;;;;;;;;35.25;31.75;;;;;7.19;56.47;100647.47;4951786;28;46227;-58
2023/03/06 07:43:25;;;;;;;;;40.00;34.00;;;;;7.23;56.60;100651.72;4957872;28;67540;-58
2023/03/06 07:45:58;;;;;;;;;32.50;29.75;;;;;7.23;56.32;100657.00;4944272;28;65653;-58
2023/03/06 07:48:23;;;;;;;;;37.00;27.25;;;;;7.21;56.21;100661.50;4947003;28;45552;-58
2023/03/06 07:51:00;;;;;;;;;31.25;27.50;;;;;7.21;56.56;100665.94;4944193;28;46453;-58
2023/03/06 07:53:26;;;;;;;;;37.25;29.00;;;;;7.21;56.30;100658.88;4948385;28;45326;-58
2023/03/06 07:55:52;;;;;;;;;40.50;30.75;;;;;7.24;56.23;100652.59;4954510;28;45252;-58
2023/03/06 07:58:17;;;;;;;;;46.50;35.75;;;;;7.26;56.76;100654.25;4939351;28;45464;-58
2023/03/06 08:00:42;;;;;;;;;35.50;32.50;;;;;7.29;56.62;100656.78;4945403;28;73631;-59
2023/03/06 08:03:10;;;;;;;;;42.25;34.00;;;;;7.34;56.67;100661.03;4950619;28;45399;-59
2023/03/06 08:05:35;;;;;;;;;39.75;32.50;;;;;7.40;56.58;100660.78;4948141;28;45314;-58
2023/03/06 08:08:00;;;;;;;;;34.25;28.25;;;;;7.47;56.60;100657.00;4950987;28;70095;-57
2023/03/06 08:10:26;;;;;;;;;39.00;29.00;;;;;7.55;56.27;100657.56;4943322;28;74444;-56
2023/03/06 08:12:51;;;;;;;;;32.25;29.50;;;;;7.62;56.10;100659.00;4950928;28;73879;-57
2023/03/06 08:15:16;;;;;;;;;32.25;26.25;;;;;7.71;56.09;100656.94;4939946;28;45433;-57
2023/03/06 08:17:42;;;;;;;;;40.25;34.50;;;;;7.77;55.96;100654.91;4930707;28;45417;-57
2023/03/06 08:20:09;;;;;;;;;37.25;35.50;;;;;7.83;56.16;100663.53;4935157;28;54743;-57
2023/03/06 08:22:34;;;;;;;;;37.50;27.00;;;;;7.88;56.04;100658.91;4937816;28;45507;-57
2023/03/06 08:25:00;;;;;;;;;33.75;31.00;;;;;7.94;55.69;100666.59;4932969;28;45366;-57
2023/03/06 08:27:25;;;;;;;;;35.25;27.00;;;;;7.96;55.71;100667.38;4943512;28;45419;-57
2023/03/06 08:29:51;;;;;;;;;34.75;28.75;;;;;7.95;55.82;100670.94;4941282;28;74780;-57
2023/03/06 08:32:16;;;;;;;;;33.75;31.50;;;;;7.99;55.45;100667.28;4935501;28;55196;-58
2023/03/06 08:34:41;;;;;;;;;34.50;27.00;;;;;8.04;55.35;100667.91;4944689;28;67760;-57
2023/03/06 08:37:07;;;;;;;;;34.75;26.50;;;;;8.10;55.56;100678.28;4940315;28;68388;-57
2023/03/06 08:39:32;;;;;;;;;34.25;30.75;;;;;8.15;55.24;100675.44;4931390;28;47151;-57
2023/03/06 08:41:58;;;;;;;;;31.75;27.25;;;;;8.22;55.30;100671.59;4940985;28;62340;-57
2023/03/06 08:44:23;;;;;;;;;35.50;30.75;;;;;8.31;55.03;100674.81;4941289;28;61760;-57
2023/03/06 08:46:48;;;;;;;;;34.25;29.25;;;;;8.47;54.89;100675.03;4940690;28;65679;-57
2023/03/06 08:49:14;;;;;;;;;34.75;28.25;;;;;8.65;54.84;100676.88;4942023;28;46173;-57
2023/03/06 08:51:39;;;;;;;;;33.75;28.50;;;;;8.91;54.55;100680.16;4943330;28;45335;-57
2023/03/06 08:54:04;;;;;;;;;34.00;28.00;;;;;9.09;54.24;100681.97;4941855;28;45409;-57
2023/03/06 08:56:32;;;;;;;;;39.00;31.50;;;;;9.19;53.39;100678.91;4941956;28;45331;-57
2023/03/06 08:58:59;;;;;;;;;31.25;24.75;;;;;9.24;53.48;100676.91;4940253;28;47753;-57
2023/03/06 09:01:27;;;;;;;;;29.33;25.33;;;;;9.40;53.68;100672.59;4940125;28;45527;-57
2023/03/06 09:03:54;;;;;;;;;36.00;30.25;;;;;9.72;53.24;100678.16;4940784;28;45311;-57
2023/03/06 09:06:19;;;;;;;;;32.75;24.75;;;;;9.94;52.35;100669.16;4941900;28;45379;-57
2023/03/06 09:08:45;;;;;;;;;34.00;28.50;;;;;10.17;52.25;100680.41;4932692;28;45420;-57
2023/03/06 09:11:12;;;;;;;;;33.25;27.75;;;;;10.45;52.18;100674.59;4937916;28;62483;-57
2023/03/06 09:13:37;;;;;;;;;30.00;29.25;;;;;10.81;50.52;100678.94;4935696;28;45315;-57
2023/03/06 09:16:03;;;;;;;;;33.50;29.75;;;;;11.09;51.38;100678.34;4934805;28;45418;-57
2023/03/06 09:18:28;;;;;;;;;26.00;22.50;;;;;11.39;50.64;100680.25;4931945;28;46023;-57
2023/03/06 09:20:54;;;;;;;;;33.00;25.75;;;;;11.61;50.08;100679.03;4936689;28;45321;-57
2023/03/06 09:23:20;;;;;;;;;30.25;29.25;;;;;11.83;49.47;100664.50;4934343;28;45316;-57
2023/03/06 09:25:52;;;;;;;;;35.25;28.00;;;;;11.98;47.97;100669.00;4940460;28;56880;-57
2023/03/06 09:28:17;;;;;;;;;31.33;24.00;;;;;12.12;48.85;100672.66;4941760;28;45520;-57
2023/03/06 09:30:42;;;;;;;;;34.00;28.33;;;;;12.15;48.62;100678.69;4952983;28;73152;-57
2023/03/06 09:33:08;;;;;;;;;34.00;28.00;;;;;12.16;48.53;100674.19;4944180;28;63389;-57
2023/03/06 09:35:33;;;;;;;;;33.25;31.50;;;;;12.19;48.06;100679.34;4947255;28;57459;-57
2023/03/06 09:37:58;;;;;;;;;35.00;31.67;;;;;12.27;48.16;100676.22;4958126;28;45607;-57
2023/03/06 09:40:44;;;;;;;;;33.33;24.67;;;;;12.42;48.32;100680.66;4940460;28;64866;-57
2023/03/06 09:43:17;;;;;;;;;27.00;21.67;;;;;12.55;46.04;100676.31;4938229;28;45364;-57
2023/03/06 09:45:43;;;;;;;;;40.50;32.50;;;;;12.55;46.85;100681.66;4941005;28;45701;-57
2023/03/06 09:48:13;;;;;;;;;33.67;27.33;;;;;12.65;47.29;100681.94;4937885;28;74393;-57
2023/03/06 09:50:50;;;;;;;;;28.33;24.33;;;;;12.86;46.46;100678.91;4940056;28;67151;-58
2023/03/06 09:53:37;;;;;;;;;34.67;30.67;;;;;13.16;46.15;100677.97;4937828;28;45328;-58
2023/03/06 09:56:05;;;;;;;;;34.33;28.00;;;;;13.48;45.11;100683.97;4952164;28;45641;-58
2023/03/06 09:58:36;;;;;;;;;35.00;32.00;;;;;13.72;45.71;100678.00;4947166;28;46061;-58
2023/03/06 10:01:11;;;;;;;;;27.67;24.67;;;;;14.07;45.02;100672.97;4932710;28;45623;-57
2023/03/06 10:04:09;;;;;;;;;29.00;28.33;;;;;14.44;44.42;100680.34;4949244;28;45350;-58
2023/03/06 10:06:50;;;;;;;;;30.67;28.33;;;;;14.80;42.94;100678.81;4938377;28;45351;-57
2023/03/06 10:09:19;;;;;;;;;29.67;29.00;;;;;15.07;42.76;100676.97;4951064;28;46094;-58
2023/03/06 10:11:54;;;;;;;;;30.67;28.33;;;;;15.46;40.07;100678.63;4938716;28;45461;-57
2023/03/06 10:14:38;;;;;;;;;33.00;29.00;;;;;15.91;41.58;100663.81;4937672;28;45304;-58
2023/03/06 10:17:05;;;;;;;;;34.33;30.00;;;;;16.21;40.97;100666.84;4935076;28;45583;-57
2023/03/06 10:19:36;;;;;;;;;34.33;28.67;;;;;16.99;41.23;100663.63;4939140;28;47494;-58
2023/03/06 10:22:25;;;;;;;;;26.33;23.33;;;;;19.13;40.25;100652.13;4948865;28;45537;-58
2023/03/06 10:24:54;;;;;;;;;20.33;20.33;;;;;21.56;35.00;100646.69;4948141;28;45459;-58
2023/03/06 10:27:48;;;;;;;;;21.67;21.67;;;;;22.78;32.99;100652.47;4950805;28;45664;-57
2023/03/06 10:30:34;;;;;;;;;23.33;20.33;;;;;22.89;32.94;100644.06;4941853;28;45514;-58
2023/03/06 10:33:17;;;;;;;;;21.67;20.00;;;;;21.88;30.32;100641.75;4939861;28;45489;-58
2023/03/06 10:35:48;;;;;;;;;26.67;25.33;;;;;20.46;28.88;100649.03;4946942;28;45249;-58
2023/03/06 10:38:20;;;;;;;;;26.67;24.00;;;;;19.41;32.38;100658.63;4947487;28;45671;-58
2023/03/06 10:41:06;;;;;;;;;29.33;24.67;;;;;18.24;32.55;100650.75;4936753;28;46097;-58
2023/03/06 10:43:33;;;;;;;;;21.33;21.33;;;;;17.35;33.85;100653.56;4929300;28;45351;-58
2023/03/06 10:45:58;;;;;;;;;23.00;21.00;;;;;17.07;32.79;100657.63;4922963;28;45527;-58
2023/03/06 10:48:25;;;;;;;;;22.00;20.33;;;;;16.96;33.68;100659.34;4940995;28;68206;-58
2023/03/06 10:50:53;;;;;;;;;20.33;17.67;;;;;16.79;32.46;100657.97;4939931;28;48535;-58
2023/03/06 10:53:27;;;;;;;;;18.67;18.33;;;;;16.75;33.44;100661.00;4938853;28;45450;-58
2023/03/06 10:55:57;;;;;;;;;28.00;21.00;;;;;16.56;33.19;100656.19;4944952;28;45540;-58
2023/03/06 10:58:26;;;;;;;;;21.67;19.00;;;;;16.35;32.70;100660.41;4938916;28;45513;-58
2023/03/06 11:01:02;;;;;;;;;25.33;22.67;;;;;16.04;33.64;100660.06;4936452;28;45216;-59
2023/03/06 11:03:28;;;;;;;;;23.33;20.67;;;;;15.85;34.10;100659.72;4925679;28;45415;-58
2023/03/06 11:06:04;;;;;;;;;21.67;20.00;;;;;15.64;34.62;100656.78;4938409;28;45291;-58
2023/03/06 11:08:30;;;;;;;;;26.00;22.00;;;;;15.35;34.84;100657.09;4936215;28;45569;-58
2023/03/06 11:10:58;;;;;;;;;22.67;21.00;;;;;14.96;35.07;100646.44;4931173;28;46207;-58
2023/03/06 11:13:26;;;;;;;;;24.33;20.67;;;;;14.54;35.44;100641.28;4926860;28;45400;-58
2023/03/06 11:15:57;;;;;;;;;25.67;20.33;;;;;14.41;35.74;100642.25;4939345;28;45327;-58
2023/03/06 11:18:29;;;;;;;;;26.33;24.33;;;;;14.31;36.16;100633.97;4946391;28;45528;-58
2023/03/06 11:20:55;;;;;;;;;23.67;19.67;;;;;14.28;36.14;100637.72;4939042;28;47019;-58
2023/03/06 11:23:36;;;;;;;;;19.67;17.33;;;;;14.25;36.21;100637.06;4938791;28;72486;-58
2023/03/06 11:26:14;;;;;;;;;19.00;17.00;;;;;14.24;36.64;100633.53;4948833;28;45710;-58
2023/03/06 11:28:45;;;;;;;;;22.67;19.67;;;;;14.16;36.62;100630.56;4943875;28;45526;-58
2023/03/06 11:31:15;;;;;;;;;24.00;23.33;;;;;13.97;36.59;100628.25;4938834;28;45212;-59
2023/03/06 11:34:15;;;;;;;;;24.00;20.33;;;;;13.80;36.70;100632.03;4939057;28;45503;-58
2023/03/06 11:36:52;;;;;;;;;26.67;22.00;;;;;13.67;37.19;100630.16;4945671;28;45358;-58
2023/03/06 11:39:29;;;;;;;;;27.00;24.00;;;;;13.72;37.64;100632.56;4942056;28;45518;-58
2023/03/06 11:42:00;;;;;;;;;27.00;23.00;;;;;14.01;37.77;100629.75;4945960;28;45562;-58
2023/03/06 11:44:50;;;;;;;;;23.67;19.33;;;;;14.39;37.05;100628.94;4946478;28;45279;-58
2023/03/06 11:47:18;;;;;;;;;17.00;17.00;;;;;14.60;36.54;100629.31;4945174;28;45327;-58
2023/03/06 11:50:20;;;;;;;;;25.33;20.67;;;;;14.86;36.05;100634.66;4954517;28;45512;-58
2023/03/06 11:52:52;;;;;;;;;26.00;24.00;;;;;15.04;36.19;100633.38;4930105;28;45339;-58
2023/03/06 11:55:39;;;;;;;;;21.00;19.67;;;;;15.05;34.64;100632.38;4940286;28;45815;-58
2023/03/06 11:58:25;;;;;;;;;22.67;18.67;;;;;14.84;34.92;100628.56;4943803;28;45371;-58
2023/03/06 12:01:09;;;;;;;;;23.33;21.33;;;;;14.64;36.00;100627.28;4954219;28;45412;-58
2023/03/06 12:03:56;;;;;;;;;26.33;22.00;;;;;14.44;35.97;100634.84;4940459;28;48068;-57
2023/03/06 12:06:28;;;;;;;;;29.33;26.67;;;;;14.17;36.63;100630.44;4940131;28;45418;-57
2023/03/06 12:09:13;;;;;;;;;25.67;21.67;;;;;13.91;36.51;100632.19;4946396;28;45529;-58
2023/03/06 12:11:41;;;;;;;;;21.00;21.00;;;;;13.52;36.33;100621.34;4947320;28;45644;-57
2023/03/06 12:14:27;;;;;;;;;18.33;16.00;;;;;13.15;37.16;100629.00;4955128;28;46354;-57
2023/03/06 12:17:07;;;;;;;;;22.67;21.00;;;;;12.91;37.51;100621.59;4942285;28;45599;-58
2023/03/06 12:20:11;;;;;;;;;22.33;19.33;;;;;12.62;38.11;100615.44;4950955;28;45589;-57
2023/03/06 12:23:01;;;;;;;;;26.67;20.67;;;;;12.43;38.46;100609.50;4940794;28;45515;-57
2023/03/06 12:25:36;;;;;;;;;23.00;21.00;;;;;12.28;38.94;100609.47;4942393;28;46137;-57
2023/03/06 12:28:05;;;;;;;;;29.67;26.67;;;;;12.12;38.95;100598.00;4934472;28;45446;-57
2023/03/06 12:30:47;;;;;;;;;25.67;24.33;;;;;12.12;39.45;100593.53;4944705;28;45507;-57
2023/03/06 12:33:29;;;;;;;;;24.67;21.67;;;;;12.18;39.76;100594.97;4940829;28;45465;-58
2023/03/06 12:36:18;;;;;;;;;23.00;23.00;;;;;12.24;39.70;100586.59;4940634;28;45490;-58
2023/03/06 12:39:00;;;;;;;;;27.67;26.67;;;;;12.34;40.01;100593.09;4930921;28;45325;-57
2023/03/06 12:41:53;;;;;;;;;27.67;24.00;;;;;12.60;39.91;100587.97;4942176;28;45366;-58
2023/03/06 12:44:40;;;;;;;;;30.33;27.67;;;;;13.02;39.91;100590.72;4940748;28;45457;-58
2023/03/06 12:47:16;;;;;;;;;31.33;24.00;;;;;13.16;39.29;100589.84;4940477;28;45583;-58
2023/03/06 12:49:43;;;;;;;;;25.33;22.00;;;;;13.11;39.16;100583.94;4942183;28;45470;-58
2023/03/06 12:52:19;;;;;;;;;24.00;23.00;;;;;13.04;39.75;100587.00;4941352;28;45241;-58
2023/03/06 12:54:44;;;;;;;;;30.67;25.00;;;;;13.08;39.66;100590.31;4941400;28;45411;-58
2023/03/06 12:57:12;;;;;;;;;27.67;26.33;;;;;12.92;39.60;100593.13;4939238;28;73298;-58
2023/03/06 12:59:41;;;;;;;;;27.33;25.00;;;;;12.79;39.99;100590.38;4923860;28;74853;-58
2023/03/06 13:02:12;;;;;;;;;24.33;21.00;;;;;12.70;40.20;100586.44;4934049;28;45482;-58
2023/03/06 13:04:49;;;;;;;;;29.33;23.33;;;;;12.72;40.28;100586.34;4941994;28;45297;-57
2023/03/06 13:07:43;;;;;;;;;25.67;22.33;;;;;12.75;40.63;100583.50;4933564;28;45354;-58
2023/03/06 13:10:15;;;;;;;;;27.33;26.67;;;;;12.77;40.51;100584.25;4941335;28;45542;-58
2023/03/06 13:12:50;;;;;;;;;23.67;22.33;;;;;12.80;40.47;100576.06;4933612;28;45530;-58
2023/03/06 13:15:44;;;;;;;;;30.00;28.33;;;;;12.78;40.46;100575.28;4940257;28;45348;-58
2023/03/06 13:18:22;;;;;;;;;23.67;23.67;;;;;12.71;40.78;100576.63;4933355;28;46166;-58
2023/03/06 13:20:47;;;;;;;;;23.00;21.67;;;;;12.69;40.33;100575.88;4938173;28;45386;-58
2023/03/06 13:23:31;;;;;;;;;21.00;18.00;;;;;12.61;40.89;100570.16;4941420;28;45346;-58
2023/03/06 13:25:58;;;;;;;;;30.00;26.00;;;;;12.51;41.00;100567.19;4934192;28;45224;-58
2023/03/06 13:28:41;;;;;;;;;28.33;23.33;;;;;12.46;41.24;100566.63;4936616;28;45405;-58
2023/03/06 13:31:06;;;;;;;;;38.00;28.00;;;;;12.45;41.27;100565.78;4936519;28;45465;-58
2023/03/06 13:33:33;;;;;;;;;27.00;25.33;;;;;12.35;41.37;100567.28;4935185;28;68125;-58
2023/03/06 13:36:18;;;;;;;;;27.33;25.00;;;;;12.18;41.66;100566.50;4941095;28;45597;-58
2023/03/06 13:38:43;;;;;;;;;30.33;26.33;;;;;12.03;41.46;100560.28;4942365;28;46391;-58
2023/03/06 13:41:23;;;;;;;;;24.67;22.67;;;;;11.91;42.26;100555.66;4935688;28;45450;-58
2023/03/06 13:44:01;;;;;;;;;27.67;25.67;;;;;11.88;42.18;100566.50;4935058;28;45406;-58
2023/03/06 13:46:34;;;;;;;;;27.00;25.00;;;;;11.84;42.37;100560.50;4936179;28;45257;-58
2023/03/06 13:49:12;;;;;;;;;31.33;25.67;;;;;11.76;42.58;100560.09;4933391;28;47100;-58
2023/03/06 13:52:16;;;;;;;;;25.67;19.67;;;;;11.66;42.72;100556.25;4947689;28;45692;-58
2023/03/06 13:55:21;;;;;;;;;28.00;26.33;;;;;11.62;43.21;100557.38;4937747;28;45425;-58
2023/03/06 13:58:05;;;;;;;;;21.33;19.67;;;;;11.61;43.07;100551.19;4945662;28;45362;-57
2023/03/06 14:00:54;;;;;;;;;26.67;23.33;;;;;11.71;43.20;100552.34;4940460;28;46217;-58
2023/03/06 14:03:46;;;;;;;;;30.33;26.67;;;;;11.79;42.87;100549.25;4940911;28;45390;-57
2023/03/06 14:06:33;;;;;;;;;26.00;24.33;;;;;11.89;43.18;100544.25;4949922;28;45579;-58
2023/03/06 14:09:00;;;;;;;;;22.67;21.00;;;;;11.97;42.89;100544.66;4952114;28;45855;-58
2023/03/06 14:11:26;;;;;;;;;29.00;24.00;;;;;12.02;42.83;100544.38;4938430;28;45489;-58
2023/03/06 14:13:54;;;;;;;;;28.67;24.33;;;;;11.98;42.88;100553.50;4938211;28;45676;-58
2023/03/06 14:16:36;;;;;;;;;28.00;23.00;;;;;11.94;43.10;100551.94;4938454;28;45371;-58
2023/03/06 14:19:02;;;;;;;;;31.00;22.33;;;;;11.92;43.13;100546.72;4926097;28;45373;-58
2023/03/06 14:21:44;;;;;;;;;19.33;19.33;;;;;12.01;43.08;100548.00;4936528;28;71036;-58
2023/03/06 14:24:15;;;;;;;;;23.33;18.67;;;;;11.94;43.17;100531.47;4920075;28;45683;-58
2023/03/06 14:26:44;;;;;;;;;18.67;18.00;;;;;11.89;43.18;100545.09;4939480;28;45440;-58
2023/03/06 14:29:23;;;;;;;;;26.33;20.33;;;;;11.77;43.23;100544.94;4939059;28;45571;-58
2023/03/06 14:31:50;;;;;;;;;21.33;19.67;;;;;11.64;43.58;100544.81;4933386;28;45643;-58
2023/03/06 14:34:21;;;;;;;;;21.00;19.67;;;;;11.58;43.54;100540.72;4939278;28;45213;-57
2023/03/06 14:36:49;;;;;;;;;23.33;22.00;;;;;11.48;43.81;100540.38;4932604;28;45295;-58
2023/03/06 14:39:21;;;;;;;;;21.33;21.00;;;;;11.47;43.74;100543.13;4932483;28;45797;-58
2023/03/06 14:41:46;;;;;;;;;18.00;17.00;;;;;11.46;43.90;100536.97;4941661;28;46363;-58
2023/03/06 14:44:22;;;;;;;;;27.33;26.33;;;;;11.50;44.12;100537.63;4941110;28;71259;-58
2023/03/06 14:46:49;;;;;;;;;30.00;22.00;;;;;11.51;44.03;100539.34;4938079;28;45376;-58
2023/03/06 14:49:16;;;;;;;;;25.33;23.00;;;;;11.53;44.19;100538.31;4929893;28;45505;-57
2023/03/06 14:51:44;;;;;;;;;22.67;19.33;;;;;11.57;44.18;100533.66;4932694;28;45526;-59
2023/03/06 14:54:16;;;;;;;;;22.33;19.33;;;;;11.58;44.39;100528.25;4938781;28;46468;-57
2023/03/06 14:56:46;;;;;;;;;21.33;20.00;;;;;11.66;44.08;100527.78;4940474;28;45516;-56
2023/03/06 14:59:15;;;;;;;;;23.00;17.67;;;;;11.72;44.25;100529.22;4922654;28;45386;-57
2023/03/06 15:01:47;;;;;;;;;18.00;17.67;;;;;11.78;44.25;100530.69;4937591;28;46960;-57
2023/03/06 15:04:38;;;;;;;;;26.00;23.33;;;;;11.87;43.94;100525.66;4931932;28;45916;-57
2023/03/06 15:07:08;;;;;;;;;22.67;20.00;;;;;11.91;44.09;100527.22;4937527;28;45390;-58
2023/03/06 15:09:35;;;;;;;;;23.00;20.00;;;;;11.92;44.09;100523.56;4933683;28;45721;-58
2023/03/06 15:12:01;;;;;;;;;27.33;20.00;;;;;11.95;44.01;100513.69;4928211;28;46134;-58
2023/03/06 15:14:36;;;;;;;;;24.67;22.33;;;;;11.94;44.16;100518.13;4935390;28;45330;-57
2023/03/06 15:17:16;;;;;;;;;22.00;19.00;;;;;11.97;44.13;100518.00;4932995;28;47572;-58
2023/03/06 15:19:46;;;;;;;;;22.67;21.67;;;;;12.01;44.15;100511.53;4937675;28;45356;-57
2023/03/06 15:22:34;;;;;;;;;21.67;20.67;;;;;12.01;44.08;100511.53;4938745;28;46152;-57
2023/03/06 15:25:22;;;;;;;;;21.67;20.00;;;;;11.98;44.01;100516.19;4935540;28;45372;-56
2023/03/06 15:28:01;;;;;;;;;17.33;17.33;;;;;11.90;44.02;100505.94;4936508;28;45319;-64
2023/03/06 15:30:30;;;;;;;;;17.67;17.67;;;;;11.80;43.91;100503.00;4956362;28;45390;-58
2023/03/06 15:33:09;;;;;;;;;19.00;17.00;;;;;11.75;44.03;100508.59;4936635;28;45524;-58
2023/03/06 15:35:34;;;;;;;;;17.50;17.50;;;;;11.68;44.25;100509.91;4930893;28;45379;-58
2023/03/06 15:38:01;;;;;;;;;21.33;17.00;;;;;11.63;44.45;100500.47;4933181;28;45419;-58
2023/03/06 15:40:29;;;;;;;;;19.33;15.00;;;;;11.64;44.21;100495.06;4930217;28;45419;-58
2023/03/06 15:42:59;;;;;;;;;16.67;14.00;;;;;11.64;44.15;100500.41;4934139;28;46173;-58
2023/03/06 15:45:26;;;;;;;;;16.00;16.00;;;;;11.62;44.30;100504.09;4936419;28;45712;-58
2023/03/06 15:47:53;;;;;;;;;18.67;15.00;;;;;11.59;44.40;100503.31;4941861;28;45322;-58
2023/03/06 15:50:24;;;;;;;;;18.33;15.33;;;;;11.58;44.32;100498.94;4937393;28;45529;-58
2023/03/06 15:52:50;;;;;;;;;12.67;11.00;;;;;11.52;44.16;100490.44;4936782;28;46355;-58
2023/03/06 15:55:18;;;;;;;;;14.67;14.67;;;;;11.49;44.29;100494.16;4944492;28;45544;-59
2023/03/06 15:57:48;;;;;;;;;17.33;16.33;;;;;11.47;44.26;100488.06;4932687;28;45544;-58
2023/03/06 16:00:27;;;;;;;;;13.33;11.33;;;;;11.40;44.14;100489.38;4927359;28;45614;-59
2023/03/06 16:02:52;;;;;;;;;13.33;13.00;;;;;11.36;44.09;100486.03;4936975;28;47188;-58
2023/03/06 16:05:18;;;;;;;;;16.67;15.67;;;;;11.38;44.30;100480.59;4934331;28;45506;-58
2023/03/06 16:07:45;;;;;;;;;14.00;13.33;;;;;11.38;44.21;100489.47;4940723;28;45414;-58
2023/03/06 16:10:18;;;;;;;;;11.67;11.67;;;;;11.35;43.99;100486.13;4939240;28;45425;-58
2023/03/06 16:12:47;;;;;;;;;18.67;11.33;;;;;11.28;44.03;100495.38;4935922;28;46287;-58
2023/03/06 16:15:27;;;;;;;;;13.00;11.67;;;;;11.31;43.91;100487.25;4942972;28;45387;-58
2023/03/06 16:17:53;;;;;;;;;13.00;10.00;;;;;11.27;44.05;100481.22;4933375;28;45317;-58
2023/03/06 16:20:21;;;;;;;;;7.67;7.67;;;;;11.24;44.16;100479.59;4932135;28;45469;-58
2023/03/06 16:22:48;;;;;;;;;10.00;8.67;;;;;11.23;44.05;100477.03;4940182;28;46364;-58
2023/03/06 16:25:15;;;;;;;;;9.00;9.00;;;;;11.22;44.17;100470.88;4938311;28;45486;-59
2023/03/06 16:27:41;;;;;;;;;11.33;8.33;;;;;11.25;44.08;100475.13;4941184;28;45188;-59
2023/03/06 16:30:17;;;;;;;;;12.67;9.00;;;;;11.24;43.78;100476.09;4940805;28;45255;-60
2023/03/06 16:32:43;;;;;;;;;12.33;11.00;;;;;11.18;44.04;100469.31;4948238;28;45451;-59
2023/03/06 16:35:11;;;;;;;;;7.67;7.67;;;;;11.17;44.20;100474.72;4960823;28;45480;-60
2023/03/06 16:37:36;;;;;;;;;8.67;8.67;;;;;11.17;44.05;100472.94;4942543;28;45366;-60
2023/03/06 16:40:05;;;;;;;;;8.33;8.33;;;;;11.13;44.26;100473.19;4941859;28;45352;-59
2023/03/06 16:42:30;;;;;;;;;10.00;10.00;;;;;11.09;44.15;100472.50;4948874;28;47230;-60
2023/03/06 16:44:56;;;;;;;;;9.00;8.00;;;;;11.09;44.28;100470.72;4957972;28;45646;-60
2023/03/06 16:47:21;;;;;;;;;11.67;9.00;;;;;11.04;43.99;100462.13;4948366;28;66874;-59
2023/03/06 16:49:46;;;;;;;;;12.00;9.67;;;;;11.04;44.17;100458.59;4946276;28;65600;-57
2023/03/06 16:52:12;;;;;;;;;13.00;9.67;;;;;11.01;44.29;100456.97;4949298;28;70030;-58
2023/03/06 16:54:37;;;;;;;;;8.00;8.00;;;;;11.03;44.22;100462.19;4934388;28;71002;-58
2023/03/06 16:57:02;;;;;;;;;9.67;8.00;;;;;10.99;44.35;100458.88;4934703;28;51040;-59
2023/03/06 16:59:28;;;;;;;;;13.67;13.33;;;;;10.95;44.38;100465.31;4940044;28;46264;-58
2023/03/06 17:01:53;;;;;;;;;9.67;8.67;;;;;10.91;44.51;100455.78;4930805;28;47618;-58
2023/03/06 17:04:18;;;;;;;;;10.00;8.00;;;;;10.87;44.02;100455.13;4936085;28;60094;-59
2023/03/06 17:06:44;;;;;;;;;12.00;9.00;;;;;10.85;44.17;100461.47;4938323;28;45864;-58
2023/03/06 17:09:09;;;;;;;;;8.00;6.00;;;;;10.81;44.40;100458.13;4939823;28;68383;-58
2023/03/06 17:11:37;;;;;;;;;11.00;9.00;;;;;10.83;44.54;100463.34;4941168;28;45327;-58
2023/03/06 17:14:02;;;;;;;;;12.33;10.67;;;;;10.79;43.90;100459.16;4932526;28;45383;-58
2023/03/06 17:16:28;;;;;;;;;7.67;7.67;;;;;10.77;43.80;100467.22;4938774;28;45422;-59
2023/03/06 17:18:53;;;;;;;;;13.33;11.67;;;;;10.72;44.07;100461.28;4937382;28;60843;-59
2023/03/06 17:21:19;;;;;;;;;13.00;10.00;;;;;10.72;44.19;100456.81;4941855;28;45279;-59
2023/03/06 17:23:44;;;;;;;;;13.67;9.33;;;;;10.70;44.55;100455.19;4939964;28;45538;-61
2023/03/06 17:26:17;;;;;;;;;8.33;7.67;;;;;10.70;44.24;100457.84;4939131;28;45479;-59
2023/03/06 17:28:43;;;;;;;;;6.00;5.00;;;;;10.65;44.25;100449.25;4934307;28;45342;-59
2023/03/06 17:31:14;;;;;;;;;9.00;8.00;;;;;10.61;44.34;100455.72;4929390;28;48198;-59